createdAt,value
2022-12-25T00:01:52.198Z,7.13
2022-12-25T00:04:19.854Z,7.13
2022-12-25T00:06:47.441Z,7.80
2022-12-25T00:09:18.075Z,7.43
2022-12-25T00:11:45.730Z,6.47
2022-12-25T00:14:13.383Z,6.93
2022-12-25T00:16:41.016Z,6.80
2022-12-25T00:19:09.797Z,6.40
2022-12-25T00:21:37.349Z,6.80
2022-12-25T00:24:07.534Z,7.70
2022-12-25T00:26:35.388Z,8.60
2022-12-25T00:29:03.064Z,7.45
2022-12-25T00:31:34.964Z,6.50
2022-12-25T00:34:02.554Z,6.57
2022-12-25T00:36:31.945Z,6.50
2022-12-25T00:39:02.870Z,6.55
2022-12-25T00:41:48.864Z,7.20
2022-12-25T00:44:19.127Z,7.55
2022-12-25T00:47:16.135Z,8.00
2022-12-25T00:52:53.490Z,7.22
2022-12-25T00:55:26.693Z,7.93
2022-12-25T00:57:54.439Z,7.57
2022-12-25T01:00:33.737Z,6.50
2022-12-25T01:03:08.352Z,6.00
2022-12-25T01:05:37.197Z,6.13
2022-12-25T01:08:05.385Z,5.90
2022-12-25T01:10:36.014Z,6.68
2022-12-25T01:13:03.661Z,7.37
2022-12-25T01:15:33.980Z,6.53
2022-12-25T01:18:07.302Z,6.07
2022-12-25T01:20:38.555Z,5.53
2022-12-25T01:23:08.683Z,6.07
2022-12-25T01:25:38.305Z,6.53
2022-12-25T01:28:06.048Z,5.50
2022-12-25T01:30:47.587Z,6.45
2022-12-25T01:33:30.551Z,5.93
2022-12-25T01:36:02.752Z,6.53
2022-12-25T01:38:32.587Z,6.40
2022-12-25T01:41:06.879Z,7.03
2022-12-25T01:43:56.870Z,6.18
2022-12-25T01:46:28.831Z,5.90
2022-12-25T01:49:01.062Z,6.00
2022-12-25T01:51:55.509Z,5.83
2022-12-25T01:54:45.539Z,6.07
2022-12-25T01:57:23.319Z,5.82
2022-12-25T01:59:51.416Z,5.32
2022-12-25T02:02:19.407Z,5.40
2022-12-25T02:04:52.580Z,5.30
2022-12-25T02:07:23.400Z,5.05
2022-12-25T02:10:01.454Z,5.60
2022-12-25T02:12:37.115Z,4.88
2022-12-25T02:15:40.071Z,5.10
2022-12-25T02:18:15.577Z,4.47
2022-12-25T02:21:11.271Z,4.53
2022-12-25T02:24:26.855Z,4.22
2022-12-25T02:27:34.145Z,4.22
2022-12-25T02:30:08.703Z,4.20
2022-12-25T02:33:23.537Z,4.77
2022-12-25T02:35:55.869Z,4.45
2022-12-25T02:38:32.751Z,4.78
2022-12-25T02:41:09.335Z,4.20
2022-12-25T02:44:06.561Z,4.88
2022-12-25T02:46:53.089Z,4.80
2022-12-25T02:49:46.634Z,4.25
2022-12-25T02:52:37.062Z,5.07
2022-12-25T02:55:29.749Z,4.70
2022-12-25T02:58:19.561Z,4.70
2022-12-25T03:01:08.902Z,4.70
2022-12-25T03:03:59.155Z,5.43
2022-12-25T03:06:44.964Z,5.35
2022-12-25T03:09:41.288Z,4.32
2022-12-25T03:12:49.055Z,4.60
2022-12-25T03:15:37.747Z,4.10
2022-12-25T03:18:10.182Z,4.33
2022-12-25T03:20:57.220Z,3.97
2022-12-25T03:23:48.368Z,4.50
2022-12-25T03:26:35.173Z,3.75
2022-12-25T03:29:03.044Z,4.18
2022-12-25T03:31:57.975Z,4.27
2022-12-25T03:34:54.612Z,3.95
2022-12-25T03:37:39.014Z,3.83
2022-12-25T03:40:51.388Z,3.83
2022-12-25T03:43:32.699Z,4.22
2022-12-25T03:46:24.950Z,3.83
2022-12-25T03:49:18.141Z,4.00
2022-12-25T03:52:06.316Z,3.38
2022-12-25T03:54:55.568Z,3.92
2022-12-25T03:57:41.828Z,3.58
2022-12-25T04:00:28.438Z,3.50
2022-12-25T04:03:14.646Z,3.58
2022-12-25T04:06:17.296Z,3.42
2022-12-25T04:09:03.677Z,3.70
2022-12-25T04:11:49.543Z,3.50
2022-12-25T04:14:35.773Z,3.70
2022-12-25T04:17:22.087Z,4.40
2022-12-25T04:20:09.232Z,3.88
2022-12-25T04:22:55.363Z,3.40
2022-12-25T04:25:41.498Z,3.33
2022-12-25T04:28:27.421Z,3.57
2022-12-25T04:31:13.832Z,3.45
2022-12-25T04:33:59.813Z,3.65
2022-12-25T04:36:27.477Z,3.47
2022-12-25T04:38:55.046Z,3.22
2022-12-25T04:41:22.649Z,3.20
2022-12-25T04:43:50.242Z,2.90
2022-12-25T04:46:17.877Z,2.20
2022-12-25T04:48:45.441Z,2.90
2022-12-25T04:51:15.955Z,2.35
2022-12-25T04:53:44.709Z,2.43
2022-12-25T04:56:12.937Z,2.90
2022-12-25T04:58:40.498Z,2.33
2022-12-25T05:01:11.369Z,2.55
2022-12-25T05:03:39.327Z,2.63
2022-12-25T05:06:07.504Z,2.63
2022-12-25T05:08:35.860Z,2.78
2022-12-25T05:11:08.921Z,2.78
2022-12-25T05:13:36.985Z,2.75
2022-12-25T05:16:09.601Z,2.85
2022-12-25T05:18:37.286Z,2.67
2022-12-25T05:21:05.048Z,2.80
2022-12-25T05:23:32.590Z,2.70
2022-12-25T05:26:04.885Z,3.80
2022-12-25T05:28:36.258Z,3.47
2022-12-25T05:31:03.966Z,3.13
2022-12-25T05:33:32.454Z,3.20
2022-12-25T05:36:05.136Z,2.90
2022-12-25T05:38:32.765Z,2.88
2022-12-25T05:41:00.711Z,2.80
2022-12-25T05:43:29.093Z,2.70
2022-12-25T05:45:57.042Z,2.40
2022-12-25T05:48:24.640Z,2.67
2022-12-25T05:50:52.169Z,3.20
2022-12-25T05:53:19.727Z,2.78
2022-12-25T05:55:47.260Z,3.33
2022-12-25T05:58:14.892Z,2.80
2022-12-25T06:00:44.423Z,3.00
2022-12-25T06:03:12.069Z,2.92
2022-12-25T06:05:40.009Z,3.25
2022-12-25T06:08:07.603Z,3.30
2022-12-25T06:10:36.179Z,3.08
2022-12-25T06:13:03.936Z,3.42
2022-12-25T06:15:32.549Z,3.63
2022-12-25T06:18:01.667Z,3.35
2022-12-25T06:20:29.245Z,2.90
2022-12-25T06:22:56.898Z,3.45
2022-12-25T06:25:24.455Z,4.07
2022-12-25T06:27:52.070Z,3.20
2022-12-25T06:30:19.645Z,3.13
2022-12-25T06:32:47.166Z,3.20
2022-12-25T06:35:16.711Z,3.58
2022-12-25T06:37:44.273Z,4.47
2022-12-25T06:40:13.340Z,3.97
2022-12-25T06:42:40.847Z,3.90
2022-12-25T06:45:08.875Z,4.27
2022-12-25T06:47:38.005Z,4.15
2022-12-25T06:50:06.594Z,4.57
2022-12-25T06:52:34.087Z,4.40
2022-12-25T06:55:01.801Z,4.68
2022-12-25T06:57:29.449Z,4.10
2022-12-25T06:59:57.049Z,3.85
2022-12-25T07:02:25.433Z,4.38
2022-12-25T07:04:53.679Z,4.50
2022-12-25T07:07:23.076Z,6.25
2022-12-25T07:09:50.635Z,5.63
2022-12-25T07:12:23.712Z,5.00
2022-12-25T07:14:54.598Z,5.60
2022-12-25T07:17:23.040Z,5.90
2022-12-25T07:19:50.706Z,5.85
2022-12-25T07:22:18.559Z,6.10
2022-12-25T07:24:46.285Z,5.75
2022-12-25T07:27:13.891Z,6.60
2022-12-25T07:29:41.458Z,6.47
2022-12-25T07:32:09.146Z,6.47
2022-12-25T07:34:36.867Z,6.57
2022-12-25T07:37:04.471Z,6.38
2022-12-25T07:39:32.071Z,6.47
2022-12-25T07:42:05.608Z,7.03
2022-12-25T07:44:33.144Z,6.00
2022-12-25T07:47:00.775Z,5.87
2022-12-25T07:49:28.289Z,6.25
2022-12-25T07:51:55.988Z,5.78
2022-12-25T07:54:23.604Z,6.55
2022-12-25T07:56:52.511Z,7.10
2022-12-25T07:59:21.097Z,6.17
2022-12-25T08:01:50.640Z,6.40
2022-12-25T08:04:18.606Z,6.55
2022-12-25T08:06:46.158Z,7.38
2022-12-25T08:09:14.084Z,6.55
2022-12-25T08:11:47.426Z,5.90
2022-12-25T08:14:15.481Z,5.63
2022-12-25T08:16:43.430Z,5.90
2022-12-25T08:19:11.448Z,5.40
2022-12-25T08:21:39.010Z,5.63
2022-12-25T08:24:06.805Z,5.20
2022-12-25T08:26:34.369Z,6.07
2022-12-25T08:29:02.339Z,5.80
2022-12-25T08:31:37.160Z,6.63
2022-12-25T08:34:07.255Z,7.35
2022-12-25T08:36:34.740Z,7.97
2022-12-25T08:39:03.479Z,8.20
2022-12-25T08:41:32.313Z,7.55
2022-12-25T08:43:59.811Z,7.38
2022-12-25T08:46:27.312Z,7.90
2022-12-25T08:48:56.793Z,7.53
2022-12-25T08:51:26.100Z,8.90
2022-12-25T08:53:58.090Z,7.90
2022-12-25T08:56:26.073Z,7.95
2022-12-25T08:58:53.571Z,7.65
2022-12-25T09:01:21.094Z,7.70
2022-12-25T09:03:48.759Z,7.43
2022-12-25T09:06:17.092Z,6.77
2022-12-25T09:08:49.199Z,8.02
2022-12-25T09:11:19.190Z,9.02
2022-12-25T09:13:47.422Z,7.78
2022-12-25T09:16:18.109Z,8.10
2022-12-25T09:18:45.604Z,7.67
2022-12-25T09:21:14.745Z,8.20
2022-12-25T09:23:42.835Z,9.20
2022-12-25T09:26:13.287Z,12.13
2022-12-25T09:28:46.547Z,9.82
2022-12-25T09:31:17.975Z,8.07
2022-12-25T09:33:45.499Z,7.90
2022-12-25T09:36:12.956Z,7.78
2022-12-25T09:38:40.384Z,6.53
2022-12-25T09:41:31.693Z,7.55
2022-12-25T09:44:13.572Z,8.87
2022-12-25T09:46:58.900Z,7.85
2022-12-25T09:49:45.164Z,6.95
2022-12-25T09:52:23.875Z,7.63
2022-12-25T09:55:20.589Z,6.53
2022-12-25T09:57:55.079Z,7.20
2022-12-25T10:00:31.909Z,6.07
2022-12-25T10:03:23.492Z,6.38
2022-12-25T10:06:22.208Z,6.82
2022-12-25T10:09:20.249Z,6.03
2022-12-25T10:12:28.486Z,6.28
2022-12-25T10:15:08.600Z,5.17
2022-12-25T10:18:25.141Z,4.25
2022-12-25T10:20:57.678Z,5.45
2022-12-25T10:23:35.587Z,5.60
2022-12-25T10:26:04.521Z,5.20
2022-12-25T10:28:45.570Z,6.87
2022-12-25T10:31:23.552Z,5.70
2022-12-25T10:33:52.997Z,5.60
2022-12-25T10:36:23.776Z,5.55
2022-12-25T10:38:52.120Z,6.30
2022-12-25T10:41:47.362Z,4.40
2022-12-25T10:44:20.492Z,4.77
2022-12-25T10:46:50.340Z,4.60
2022-12-25T10:49:20.973Z,5.03
2022-12-25T10:51:48.712Z,4.20
2022-12-25T10:54:23.724Z,4.10
2022-12-25T10:56:59.413Z,4.77
2022-12-25T10:59:29.850Z,4.30
2022-12-25T11:02:05.630Z,3.72
2022-12-25T11:04:35.702Z,4.70
2022-12-25T11:07:15.177Z,4.13
2022-12-25T11:09:50.195Z,4.50
2022-12-25T11:12:20.358Z,4.57
2022-12-25T11:14:58.028Z,5.03
2022-12-25T11:17:27.065Z,3.80
2022-12-25T11:20:00.061Z,3.78
2022-12-25T11:22:33.125Z,3.60
2022-12-25T11:25:12.495Z,3.40
2022-12-25T11:27:40.018Z,3.40
2022-12-25T11:30:15.861Z,3.30
2022-12-25T11:32:55.683Z,3.70
2022-12-25T11:35:30.609Z,3.13
2022-12-25T11:37:58.248Z,2.90
2022-12-25T11:40:32.356Z,3.58
2022-12-25T11:43:09.362Z,4.40
2022-12-25T11:45:41.917Z,3.23
2022-12-25T11:48:28.670Z,3.10
2022-12-25T11:51:00.153Z,3.28
2022-12-25T11:53:51.061Z,3.33
2022-12-25T11:56:25.041Z,4.10
2022-12-25T11:58:54.760Z,5.10
2022-12-25T12:01:37.101Z,5.50
2022-12-25T12:04:14.450Z,4.55
2022-12-25T12:07:00.755Z,3.40
2022-12-25T12:09:34.654Z,3.30
2022-12-25T12:12:15.875Z,4.22
2022-12-25T12:15:13.141Z,4.97
2022-12-25T12:17:40.722Z,5.78
2022-12-25T12:20:35.894Z,5.05
2022-12-25T12:23:12.062Z,5.10
2022-12-25T12:25:42.392Z,5.82
2022-12-25T12:28:20.719Z,4.93
2022-12-25T12:31:18.099Z,4.13
2022-12-25T12:33:55.008Z,3.58
2022-12-25T12:36:35.607Z,4.00
2022-12-25T12:39:06.173Z,5.75
2022-12-25T12:41:45.661Z,3.47
2022-12-25T12:44:14.708Z,3.00
2022-12-25T12:46:52.664Z,4.60
2022-12-25T12:49:25.251Z,3.53
2022-12-25T12:52:31.520Z,3.35
2022-12-25T12:55:04.893Z,3.30
2022-12-25T12:57:39.408Z,3.33
2022-12-25T13:00:15.869Z,2.80
2022-12-25T13:02:58.648Z,2.45
2022-12-25T13:05:41.432Z,2.65
2022-12-25T13:08:15.183Z,2.65
2022-12-25T13:10:49.534Z,3.40
2022-12-25T13:13:44.862Z,2.77
2022-12-25T13:16:32.134Z,3.10
2022-12-25T13:19:04.500Z,2.78
2022-12-25T13:21:33.293Z,2.70
2022-12-25T13:24:10.778Z,3.20
2022-12-25T13:26:39.835Z,2.58
2022-12-25T13:29:11.553Z,2.70
2022-12-25T13:31:41.205Z,2.77
2022-12-25T13:34:23.785Z,2.50
2022-12-25T13:36:51.409Z,2.45
2022-12-25T13:39:19.289Z,2.67
2022-12-25T13:42:10.251Z,2.75
2022-12-25T13:44:37.717Z,2.47
2022-12-25T13:47:20.032Z,2.70
2022-12-25T13:49:49.258Z,2.70
2022-12-25T13:52:21.283Z,2.78
2022-12-25T13:55:00.991Z,2.83
2022-12-25T13:57:38.596Z,2.70
2022-12-25T14:00:08.105Z,2.20
2022-12-25T14:02:38.373Z,3.00
2022-12-25T14:05:43.001Z,2.25
2022-12-25T14:08:19.461Z,2.70
2022-12-25T14:10:50.958Z,2.20
2022-12-25T14:13:21.453Z,2.55
2022-12-25T14:15:50.468Z,2.40
2022-12-25T14:18:19.979Z,2.80
2022-12-25T14:21:03.596Z,2.08
2022-12-25T14:23:42.414Z,2.40
2022-12-25T14:26:21.556Z,2.67
2022-12-25T14:28:53.113Z,2.25
2022-12-25T14:31:22.065Z,2.08
2022-12-25T14:33:51.024Z,2.17
2022-12-25T14:36:19.086Z,2.45
2022-12-25T14:38:58.985Z,2.33
2022-12-25T14:41:34.022Z,2.25
2022-12-25T14:44:03.365Z,2.45
2022-12-25T14:46:33.857Z,2.70
2022-12-25T14:49:07.388Z,2.67
2022-12-25T14:51:39.229Z,3.17
2022-12-25T14:54:16.484Z,2.70
2022-12-25T14:56:48.123Z,2.53
2022-12-25T14:59:26.429Z,2.78
2022-12-25T15:02:01.339Z,2.90
2022-12-25T15:04:29.989Z,2.43
2022-12-25T15:07:00.533Z,1.98
2022-12-25T15:09:30.182Z,2.45
2022-12-25T15:11:57.763Z,3.33
2022-12-25T15:14:26.606Z,3.20
2022-12-25T15:17:00.859Z,3.90
2022-12-25T15:19:36.951Z,3.00
2022-12-25T15:22:05.258Z,3.28
2022-12-25T15:24:32.863Z,3.20
2022-12-25T15:27:00.853Z,3.13
2022-12-25T15:32:19.084Z,4.30
2022-12-25T15:34:49.771Z,3.27
2022-12-25T15:37:19.084Z,3.10
2022-12-25T15:39:46.929Z,3.17
2022-12-25T15:42:17.253Z,3.22
2022-12-25T15:44:45.850Z,3.10
2022-12-25T15:47:14.835Z,3.30
2022-12-25T15:49:42.754Z,3.30
2022-12-25T15:52:15.696Z,3.22
2022-12-25T15:54:43.808Z,3.53
2022-12-25T15:57:21.216Z,3.00
2022-12-25T15:59:48.875Z,3.13
2022-12-25T16:02:19.643Z,3.20
2022-12-25T16:04:48.990Z,3.50
2022-12-25T16:07:18.741Z,4.18
2022-12-25T16:09:46.402Z,4.60
2022-12-25T16:12:13.955Z,4.07
2022-12-25T16:14:41.668Z,4.10
2022-12-25T16:17:12.913Z,4.83
2022-12-25T16:19:40.501Z,5.30
2022-12-25T16:22:19.179Z,4.57
2022-12-25T16:24:46.722Z,5.53
2022-12-25T16:27:14.198Z,5.25
2022-12-25T16:29:42.512Z,4.93
2022-12-25T16:32:14.784Z,5.18
2022-12-25T16:34:42.550Z,8.07
2022-12-25T16:37:10.245Z,9.55
2022-12-25T16:39:38.029Z,10.05
2022-12-25T16:42:05.839Z,7.80
2022-12-25T16:44:36.591Z,8.00
2022-12-25T16:47:04.185Z,10.57
2022-12-25T16:49:32.016Z,10.07
2022-12-25T16:51:59.576Z,8.77
2022-12-25T16:54:27.083Z,8.43
2022-12-25T16:56:54.649Z,8.60
2022-12-25T16:59:22.302Z,9.10
2022-12-25T17:01:49.989Z,8.60
2022-12-25T17:04:17.533Z,7.18
2022-12-25T17:06:45.090Z,6.80
2022-12-25T17:09:12.614Z,7.35
2022-12-25T17:11:40.073Z,7.27
2022-12-25T17:14:07.704Z,5.67
2022-12-25T17:16:36.925Z,5.47
2022-12-25T17:19:16.048Z,6.30
2022-12-25T17:21:43.617Z,7.32
2022-12-25T17:24:11.501Z,8.05
2022-12-25T17:26:40.864Z,8.03
2022-12-25T17:29:09.215Z,8.48
2022-12-25T17:31:38.267Z,8.20
2022-12-25T17:34:08.288Z,6.60
2022-12-25T17:36:36.202Z,6.95
2022-12-25T17:39:05.775Z,6.63
2022-12-25T17:41:33.606Z,6.63
2022-12-25T17:44:01.245Z,7.28
2022-12-25T17:46:30.072Z,6.78
2022-12-25T17:48:59.628Z,6.57
2022-12-25T17:51:28.726Z,6.55
2022-12-25T17:53:59.005Z,7.13
2022-12-25T17:56:26.626Z,10.77
2022-12-25T17:58:57.130Z,6.35
2022-12-25T18:01:26.232Z,6.85
2022-12-25T18:03:54.844Z,8.00
2022-12-25T18:06:25.963Z,7.82
2022-12-25T18:08:54.916Z,8.37
2022-12-25T18:11:29.377Z,7.28
2022-12-25T18:13:58.405Z,7.22
2022-12-25T18:16:27.179Z,7.10
2022-12-25T18:18:55.041Z,7.55
2022-12-25T18:21:23.188Z,6.87
2022-12-25T18:23:51.330Z,7.17
2022-12-25T18:26:19.875Z,6.85
2022-12-25T18:28:48.907Z,8.15
2022-12-25T18:31:20.183Z,8.05
2022-12-25T18:33:48.333Z,7.25
2022-12-25T18:36:20.357Z,7.47
2022-12-25T18:38:49.819Z,8.20
2022-12-25T18:41:17.816Z,7.85
2022-12-25T18:43:53.920Z,8.27
2022-12-25T18:46:27.346Z,8.18
2022-12-25T18:48:56.415Z,8.23
2022-12-25T18:51:24.756Z,8.18
2022-12-25T18:53:52.382Z,8.20
2022-12-25T18:56:20.403Z,8.65
2022-12-25T18:58:48.650Z,9.30
2022-12-25T19:01:20.499Z,9.20
2022-12-25T19:03:49.497Z,8.53
2022-12-25T19:06:25.375Z,8.25
2022-12-25T19:08:53.708Z,9.07
2022-12-25T19:11:21.956Z,8.60
2022-12-25T19:13:49.756Z,9.98
2022-12-25T19:16:17.973Z,9.90
2022-12-25T19:18:46.221Z,8.90
2022-12-25T19:21:13.773Z,9.52
2022-12-25T19:23:41.334Z,9.35
2022-12-25T19:26:10.196Z,9.20
2022-12-25T19:28:39.086Z,8.57
2022-12-25T19:31:09.032Z,9.60
2022-12-25T19:33:40.592Z,8.88
2022-12-25T19:36:11.991Z,8.20
2022-12-25T19:38:40.374Z,8.18
2022-12-25T19:41:13.744Z,8.98
2022-12-25T19:43:43.594Z,8.73
2022-12-25T19:46:17.924Z,9.38
2022-12-25T19:48:46.419Z,9.23
2022-12-25T19:51:23.141Z,8.52
2022-12-25T19:53:51.316Z,9.48
2022-12-25T19:56:19.093Z,9.90
2022-12-25T19:58:46.601Z,9.40
2022-12-25T20:01:18.579Z,8.63
2022-12-25T20:03:47.561Z,8.85
2022-12-25T20:06:20.033Z,9.20
2022-12-25T20:08:50.267Z,10.90
2022-12-25T20:11:18.529Z,11.07
2022-12-25T20:13:46.536Z,10.43
2022-12-25T20:16:14.135Z,9.98
2022-12-25T20:18:42.005Z,9.52
2022-12-25T20:21:14.320Z,10.20
2022-12-25T20:23:45.919Z,9.70
2022-12-25T20:26:15.396Z,9.80
2022-12-25T20:28:43.449Z,10.27
2022-12-25T20:31:20.612Z,9.63
2022-12-25T20:33:48.253Z,10.05
2022-12-25T20:36:15.921Z,10.00
2022-12-25T20:38:43.435Z,9.73
2022-12-25T20:41:26.787Z,9.70
2022-12-25T20:43:54.895Z,11.07
2022-12-25T20:46:24.083Z,10.25
2022-12-25T20:48:53.139Z,9.75
2022-12-25T20:51:23.873Z,10.03
2022-12-25T20:53:52.126Z,9.90
2022-12-25T20:56:21.968Z,9.98
2022-12-25T20:58:57.118Z,10.23
2022-12-25T21:01:25.228Z,10.65
2022-12-25T21:03:53.917Z,11.03
2022-12-25T21:06:22.330Z,11.23
2022-12-25T21:08:49.948Z,11.02
2022-12-25T21:11:18.271Z,10.88
2022-12-25T21:13:46.885Z,11.80
2022-12-25T21:16:18.878Z,11.23
2022-12-25T21:18:47.291Z,12.27
2022-12-25T21:21:15.402Z,12.00
2022-12-25T21:23:43.139Z,11.10
2022-12-25T21:26:25.873Z,10.43
2022-12-25T21:28:56.278Z,10.05
2022-12-25T21:31:24.762Z,9.50
2022-12-25T21:33:54.115Z,10.38
2022-12-25T21:36:27.562Z,9.93
2022-12-25T21:38:59.654Z,10.65
2022-12-25T21:41:28.932Z,10.00
2022-12-25T21:43:56.938Z,10.60
2022-12-25T21:46:25.102Z,11.15
2022-12-25T21:48:53.615Z,11.00
2022-12-25T21:51:42.625Z,9.85
2022-12-25T21:54:11.705Z,10.00
2022-12-25T21:56:44.947Z,10.67
2022-12-25T21:59:16.501Z,10.90
2022-12-25T22:01:45.003Z,9.98
2022-12-25T22:04:15.209Z,10.23
2022-12-25T22:07:01.968Z,10.25
2022-12-25T22:09:30.619Z,9.17
2022-12-25T22:12:17.110Z,9.43
2022-12-25T22:14:56.714Z,9.63
2022-12-25T22:17:48.778Z,9.93
2022-12-25T22:20:25.092Z,9.70
2022-12-25T22:22:53.047Z,10.00
2022-12-25T22:25:21.131Z,10.75
2022-12-25T22:27:49.890Z,10.07
2022-12-25T22:30:22.153Z,9.15
2022-12-25T22:32:50.758Z,8.70
2022-12-25T22:35:18.824Z,8.77
2022-12-25T22:37:46.967Z,8.53
2022-12-25T22:40:16.925Z,9.73
2022-12-25T22:42:44.729Z,9.60
2022-12-25T22:45:12.933Z,9.77
2022-12-25T22:47:41.025Z,11.50
2022-12-25T22:50:09.513Z,10.53
2022-12-25T22:52:37.632Z,10.20
2022-12-25T22:55:06.469Z,9.25
2022-12-25T22:57:34.171Z,10.05
2022-12-25T23:00:01.948Z,9.20
2022-12-25T23:02:29.893Z,9.83
2022-12-25T23:04:57.551Z,9.82
2022-12-25T23:07:25.082Z,9.07
2022-12-25T23:09:52.745Z,9.95
2022-12-25T23:12:38.649Z,9.93
2022-12-25T23:15:06.871Z,9.30
2022-12-25T23:17:52.695Z,10.10
2022-12-25T23:20:38.795Z,11.30
2022-12-25T23:23:28.146Z,11.18
2022-12-25T23:26:07.690Z,9.82
2022-12-25T23:28:59.375Z,10.13
2022-12-25T23:31:33.698Z,10.35
2022-12-25T23:34:02.058Z,10.70
2022-12-25T23:36:29.521Z,9.77
2022-12-25T23:38:59.286Z,9.27
2022-12-25T23:41:30.921Z,8.53
2022-12-25T23:43:59.491Z,8.80
